Cornland, IL (62519)

5:55 AM CST on January 25, 2015 (GMT -0600)
S. Lanesville | Change Station
CLOSE
Current Station
Personal Weather Station
Location: Mechanicsburg, IL
Elevation: 591 ft
Nearby Weather Stations
Active Advisory: Special Statement

Elev 591 ft 39.85 °N, 89.35 °W | Updated 3 minutes ago

Overcast
Overcast
38.4 °F
Feels Like 38 °F
N
1.0
Wind Variable Wind from South
Gusts 2.0 mph

Today
High -- | Low -- °F
--% Chance of Precip.
Yesterday
High -- | Low -- °F
Precip. -- in
7:11 AM 5:08 PM
Waxing Crescent, 31% visible
Pressure 29.60 in
Visibility 10.0 miles
Clouds Overcast 4800 ft
Windchill 38 °F
Dew Point 35 °F
Humidity 88%
Rainfall 0.00 in
Snow Depth Not available.
UV 0 out of 12
Pollen .10 out of 12
Air Quality Not available.
Flu Activity Not available.
METAR KSPI 251052Z 19004KT 10SM OVC048 05/01 A2959 RMK AO2 RAB24E51 SLP023 P0000 T00500011

More Conditions Fewer Conditions

Pressure 29.60 in
Visibility 10.0 miles
Clouds Overcast 4800 ft
Windchill 38 °F
Dew Point 35 °F
Humidity 88%
Rainfall 0.00 in
Snow Depth Not available.
UV 0 out of 12
Pollen .10 out of 12
Air Quality Not available.
Flu Activity Not available.
METAR KSPI 251052Z 19004KT 10SM OVC048 05/01 A2959 RMK AO2 RAB24E51 SLP023 P0000 T00500011

More Conditions Fewer Conditions

10-Day Weather Forecast

Almanac

Astronomy

Jan. 25, 2015 Rise Set
Actual Time
Civil Twilight
Nautical Twilight
Astronomical Twilight
Moon
Length of Visible Light
Length of Day
Tomorrow will be .
, % of the Moon is Illuminated

Today's Extremes

State Highs State Lows

Community

WunderPhotos

Upload Photos

1,789,874 photos uploaded!

WunderBlogs® & News

Nearby

Air Quality

  Air Quality AQ Index Pollutant
Not available.

Snow Depth

Station Depth Elevation

Earthquake Activity

City Distance Mag. Time & Date
Minimum magnitude displayed is 2.5.

Coastal Water Temperatures

Place Temperature

Nearby Weather Stations